Time,TemperatureF,DewpointF,PressureIn,WindDirection,WindDirectionDegrees,WindSpeedMPH,WindSpeedGustMPH,Humidity,HourlyPrecipIn,Conditions,Clouds,dailyrainin,SoftwareType,DateUTC
2013-03-31 00:03:00,46.0,36.4,29.73,West,274,8.0,19.0,69,0.00,SN,SN,0.00,WeatherDisplay:10.37,2013-03-31 05:03:00,
2013-03-31 00:13:00,46.2,36.6,29.73,NW,315,9.0,16.0,69,0.00,SN,SN,0.00,WeatherDisplay:10.37,2013-03-31 05:13:00,
2013-03-31 00:23:00,45.9,35.5,29.73,WNW,283,10.0,19.0,67,0.00,SN,SN,0.00,WeatherDisplay:10.37,2013-03-31 05:23:00,
2013-03-31 00:33:00,46.0,35.3,29.73,West,274,8.0,16.0,66,0.00,SN,SN,0.00,WeatherDisplay:10.37,2013-03-31 05:33:00,
2013-03-31 00:43:00,47.3,36.1,29.73,WSW,254,10.0,18.0,65,0.00,SN,SN,0.00,WeatherDisplay:10.37,2013-03-31 05:43:00,
2013-03-31 00:53:00,46.6,35.0,29.73,WNW,288,8.0,19.0,64,0.00,SN,SN,0.00,WeatherDisplay:10.37,2013-03-31 05:53:00,
2013-03-31 01:03:00,47.5,35.5,29.73,NW,309,12.0,20.0,63,0.00,SN,SN,0.00,WeatherDisplay:10.37,2013-03-31 06:03:00,
2013-03-31 01:13:00,46.2,34.7,29.73,West,263,14.0,19.0,64,0.00,SN,SN,0.00,WeatherDisplay:10.37,2013-03-31 06:13:00,
2013-03-31 01:23:00,46.4,34.9,29.73,West,260,12.0,19.0,64,0.00,SN,SN,0.00,WeatherDisplay:10.37,2013-03-31 06:23:00,
2013-03-31 01:33:00,46.2,35.1,29.73,NW,307,12.0,19.0,65,0.00,SN,SN,0.00,WeatherDisplay:10.37,2013-03-31 06:33:00,
2013-03-31 01:43:00,46.9,35.8,29.72,WNW,289,14.0,28.0,65,0.00,SN,SN,0.00,WeatherDisplay:10.37,2013-03-31 06:43:00,
2013-03-31 01:53:00,45.9,35.5,29.72,NW,315,13.0,22.0,67,0.00,SN,SN,0.00,WeatherDisplay:10.37,2013-03-31 06:53:00,
2013-03-31 02:03:00,45.1,35.6,29.72,WNW,292,15.0,28.0,69,0.00,SN,SN,0.00,WeatherDisplay:10.37,2013-03-31 07:03:00,
2013-03-31 02:13:00,43.7,35.6,29.73,West,265,15.0,28.0,73,0.00,SN,SN,0.00,WeatherDisplay:10.37,2013-03-31 07:13:00,
2013-03-31 02:23:00,41.4,34.4,29.74,WNW,286,16.0,28.0,76,0.01,SN,SN,0.01,WeatherDisplay:10.37,2013-03-31 07:23:00,
2013-03-31 02:33:00,40.8,34.8,29.74,WNW,293,8.0,28.0,79,0.00,SN,SN,0.01,WeatherDisplay:10.37,2013-03-31 07:33:00,
2013-03-31 02:43:00,40.5,34.8,29.75,SW,235,13.0,35.0,80,0.00,SN,SN,0.01,WeatherDisplay:10.37,2013-03-31 07:43:00,
2013-03-31 02:53:00,40.1,34.4,29.75,West,265,10.0,28.0,80,0.00,SN,SN,0.01,WeatherDisplay:10.37,2013-03-31 07:53:00,
2013-03-31 03:03:00,39.6,34.5,29.75,WNW,282,8.0,16.0,82,0.00,SN,SN,0.01,WeatherDisplay:10.37,2013-03-31 08:03:00,
2013-03-31 03:13:00,39.7,34.4,29.76,West,276,9.0,23.0,81,0.00,SN,SN,0.01,WeatherDisplay:10.37,2013-03-31 08:13:00,
2013-03-31 03:23:00,39.7,34.1,29.75,West,270,14.0,19.0,80,0.00,SN,SN,0.01,WeatherDisplay:10.37,2013-03-31 08:23:00,
2013-03-31 03:33:00,39.2,33.9,29.75,WSW,254,14.0,24.0,81,0.00,SN,SN,0.01,WeatherDisplay:10.37,2013-03-31 08:33:00,
2013-03-31 03:43:00,38.8,33.5,29.76,WNW,289,12.0,24.0,81,0.00,SN,SN,0.01,WeatherDisplay:10.37,2013-03-31 08:43:00,
2013-03-31 03:53:00,38.8,32.9,29.76,West,270,14.0,22.0,79,0.00,SN,SN,0.01,WeatherDisplay:10.37,2013-03-31 08:53:00,
2013-03-31 04:03:00,38.8,32.6,29.76,West,270,13.0,19.0,78,0.00,SN,SN,0.01,WeatherDisplay:10.37,2013-03-31 09:03:00,
2013-03-31 04:13:00,39.0,32.1,29.76,West,270,10.0,19.0,76,0.00,SN,SN,0.01,WeatherDisplay:10.37,2013-03-31 09:13:00,
2013-03-31 04:23:00,39.4,31.4,29.76,WNW,287,15.0,19.0,73,0.00,SN,SN,0.01,WeatherDisplay:10.37,2013-03-31 09:23:00,
2013-03-31 04:43:00,40.8,31.1,29.75,WSW,246,12.0,28.0,68,0.00,SN,SN,0.01,WeatherDisplay:10.37,2013-03-31 09:43:00,
2013-03-31 05:03:00,41.5,31.0,29.75,NW,315,10.0,17.0,66,0.00,SN,SN,0.01,WeatherDisplay:10.37,2013-03-31 10:03:00,
2013-03-31 05:13:00,41.0,30.9,29.75,WNW,299,12.0,19.0,67,0.00,SN,SN,0.01,WeatherDisplay:10.37,2013-03-31 10:13:00,
2013-03-31 05:23:00,41.5,31.0,29.76,West,270,10.0,19.0,66,0.00,SN,SN,0.01,WeatherDisplay:10.37,2013-03-31 10:23:00,
2013-03-31 05:33:00,40.5,30.0,29.76,WNW,283,12.0,17.0,66,0.00,SN,SN,0.01,WeatherDisplay:10.37,2013-03-31 10:33:00,
2013-03-31 05:43:00,41.0,30.9,29.77,WNW,291,12.0,22.0,67,0.00,SN,SN,0.01,WeatherDisplay:10.37,2013-03-31 10:43:00,
2013-03-31 05:53:00,41.5,31.0,29.76,West,277,13.0,28.0,66,0.00,SN,SN,0.01,WeatherDisplay:10.37,2013-03-31 10:53:00,
2013-03-31 06:03:00,41.4,29.3,29.77,NW,308,16.0,26.0,62,0.00,SN,SN,0.01,WeatherDisplay:10.37,2013-03-31 11:03:00,
2013-03-31 06:13:00,41.9,29.8,29.77,WNW,297,15.0,23.0,62,0.00,SN,SN,0.01,WeatherDisplay:10.37,2013-03-31 11:13:00,
2013-03-31 06:23:00,41.0,29.4,29.77,WNW,288,10.0,23.0,63,0.00,SN,SN,0.01,WeatherDisplay:10.37,2013-03-31 11:23:00,
2013-03-31 06:33:00,41.0,29.0,29.77,West,262,13.0,23.0,62,0.00,SN,SN,0.01,WeatherDisplay:10.37,2013-03-31 11:33:00,
2013-03-31 06:43:00,40.5,28.5,29.78,West,270,12.0,19.0,62,0.00,SN,SN,0.01,WeatherDisplay:10.37,2013-03-31 11:43:00,
2013-03-31 06:53:00,40.1,29.3,29.77,WSW,257,8.0,19.0,65,0.00,SN,SN,0.01,WeatherDisplay:10.37,2013-03-31 11:53:00,
2013-03-31 07:03:00,39.6,29.1,29.78,SW,236,8.0,20.0,66,0.00,SN,SN,0.01,WeatherDisplay:10.37,2013-03-31 12:03:00,
2013-03-31 18:33:00,38.5,29.9,29.79,WNW,302,10.0,23.0,71,0.00,SN,SN,0.01,WeatherDisplay:10.37,2013-03-31 23:33:00,
2013-03-31 18:43:00,36.5,30.0,29.80,NW,310,15.0,26.0,77,0.00,SN,SN,0.01,WeatherDisplay:10.37,2013-03-31 23:43:00,
2013-03-31 18:53:00,36.0,31.3,29.80,WNW,297,6.0,15.0,83,0.00,SN,SN,0.01,WeatherDisplay:10.37,2013-03-31 23:53:00,
2013-03-31 19:03:00,36.3,31.7,29.80,NW,308,12.0,16.0,83,0.00,SN,SN,0.01,WeatherDisplay:10.37,2013-04-01 00:03:00,
2013-03-31 19:13:00,36.1,31.2,29.80,WNW,292,8.0,16.0,82,0.00,SN,SN,0.01,WeatherDisplay:10.37,2013-04-01 00:13:00,
2013-03-31 19:23:00,35.8,30.5,29.81,West,278,9.0,15.0,81,0.00,SN,SN,0.01,WeatherDisplay:10.37,2013-04-01 00:23:00,
2013-03-31 19:33:00,35.8,29.9,29.81,WNW,296,6.0,20.0,79,0.00,SN,SN,0.01,WeatherDisplay:10.37,2013-04-01 00:33:00,
2013-03-31 19:43:00,35.8,29.0,29.81,WNW,298,7.0,14.0,76,0.00,SN,SN,0.01,WeatherDisplay:10.37,2013-04-01 00:43:00,
2013-03-31 19:53:00,35.8,28.3,29.81,WNW,292,7.0,14.0,74,0.00,SN,SN,0.01,WeatherDisplay:10.37,2013-04-01 00:53:00,
2013-03-31 20:03:00,35.8,28.3,29.82,WNW,291,8.0,16.0,74,0.00,SN,SN,0.01,WeatherDisplay:10.37,2013-04-01 01:03:00,
2013-03-31 20:13:00,35.4,28.3,29.82,WNW,288,6.0,10.0,75,0.00,SN,SN,0.01,WeatherDisplay:10.37,2013-04-01 01:13:00,
2013-03-31 20:23:00,35.3,28.2,29.83,West,278,5.0,10.0,75,0.00,SN,SN,0.01,WeatherDisplay:10.37,2013-04-01 01:23:00,
2013-03-31 20:33:00,35.2,27.4,29.83,West,277,6.0,12.0,73,0.00,SN,SN,0.01,WeatherDisplay:10.37,2013-04-01 01:33:00,
2013-03-31 20:43:00,35.6,26.8,29.84,West,280,6.0,12.0,70,0.00,SN,SN,0.01,WeatherDisplay:10.37,2013-04-01 01:43:00,
2013-03-31 20:53:00,35.7,25.1,29.84,WNW,293,7.0,15.0,65,0.00,SN,SN,0.01,WeatherDisplay:10.37,2013-04-01 01:53:00,
2013-03-31 21:03:00,35.8,23.2,29.85,NW,310,12.0,17.0,60,0.00,SN,SN,0.01,WeatherDisplay:10.37,2013-04-01 02:03:00,
2013-03-31 21:13:00,35.4,22.1,29.85,NW,313,7.0,20.0,58,0.00,SN,SN,0.01,WeatherDisplay:10.37,2013-04-01 02:13:00,
2013-03-31 21:23:00,35.1,22.2,29.85,NW,307,8.0,13.0,59,0.00,SN,SN,0.01,WeatherDisplay:10.37,2013-04-01 02:23:00,
2013-03-31 21:33:00,34.9,22.4,29.86,WNW,290,6.0,14.0,60,0.00,SN,SN,0.01,WeatherDisplay:10.37,2013-04-01 02:33:00,
2013-03-31 21:43:00,34.7,21.8,29.86,WNW,291,7.0,17.0,59,0.00,SN,SN,0.01,WeatherDisplay:10.37,2013-04-01 02:43:00,
2013-03-31 21:53:00,34.5,21.7,29.86,WNW,292,6.0,15.0,59,0.00,SN,SN,0.01,WeatherDisplay:10.37,2013-04-01 02:53:00,
2013-03-31 22:03:00,34.3,21.1,29.87,NW,305,10.0,14.0,58,0.00,SN,SN,0.01,WeatherDisplay:10.37,2013-04-01 03:03:00,
2013-03-31 22:13:00,34.0,20.7,29.88,WNW,296,10.0,15.0,58,0.00,SN,SN,0.01,WeatherDisplay:10.37,2013-04-01 03:13:00,
2013-03-31 22:23:00,33.9,20.3,29.88,WNW,299,9.0,17.0,57,0.00,SN,SN,0.01,WeatherDisplay:10.37,2013-04-01 03:23:00,
2013-03-31 22:33:00,33.6,19.6,29.88,WNW,283,7.0,15.0,56,0.00,SN,SN,0.01,WeatherDisplay:10.37,2013-04-01 03:33:00,
2013-03-31 22:43:00,33.6,19.6,29.88,West,280,6.0,17.0,56,0.00,SN,SN,0.01,WeatherDisplay:10.37,2013-04-01 03:43:00,
2013-03-31 22:53:00,33.3,19.2,29.88,NW,305,7.0,14.0,56,0.00,SN,SN,0.01,WeatherDisplay:10.37,2013-04-01 03:53:00,
2013-03-31 23:03:00,33.1,19.1,29.88,NW,312,7.0,13.0,56,0.00,SN,SN,0.01,WeatherDisplay:10.37,2013-04-01 04:03:00,
2013-03-31 23:13:00,32.9,19.3,29.88,WNW,296,8.0,13.0,57,0.00,SN,SN,0.01,WeatherDisplay:10.37,2013-04-01 04:13:00,
2013-03-31 23:23:00,32.7,19.6,29.89,WNW,296,8.0,18.0,58,0.00,SN,SN,0.01,WeatherDisplay:10.37,2013-04-01 04:23:00,
2013-03-31 23:33:00,32.5,19.4,29.89,WNW,289,6.0,15.0,58,0.00,SN,SN,0.01,WeatherDisplay:10.37,2013-04-01 04:33:00,
2013-03-31 23:43:00,32.4,18.8,29.89,WNW,301,9.0,18.0,57,0.00,SN,SN,0.01,WeatherDisplay:10.37,2013-04-01 04:43:00,
2013-03-31 23:53:00,32.4,19.2,29.90,WNW,294,8.0,16.0,58,0.00,SN,SN,0.01,WeatherDisplay:10.37,2013-04-01 04:53:00,